Portada
METAR-TAF:

METAR-TAF

Aeropuertos :

Aeropuerto Cherif Al Idrissi

Alhucemas, Marruecos

latitud: 35-11N, longitud: 003-51W, altitud: 27 m

Observación

El informe se hizo hace 35 minutos, a las 16:00 UTC
Viento 14 kt del este-noreste, variando entre norte-noreste y este-sureste
Temperatura 26°C
Humedad 51%
Presión 1018 hPa
Visibilidad 10 km o más
sin nubes por debajo de 1500 m y sin presencia de cumulonimbus.

METAR: GMTA 261600Z 06014KT 020V110 CAVOK 26/15 Q1018 NOSIG

Hora: 17:35 (16:35 UTC)

Pronóstico

El informe se hizo hace 5 horas y 35 minutos, a las 11:00 UTC
Pronóstico válido del 26 a las 12 UTC al 27 a las 18 UTC
Viento 17 kt del este
Visibilidad 10 km o más
sin nubes por debajo de 1500 m y sin presencia de cumulonimbus.
Probabilidad 30% :
Temporalmente
del 26 a las 12 UTC al 26 a las 18 UTC
Viento 18 kt del este-noreste con ráfagas de 30 kt

TAF: GMTA 261100Z 2612/2718 08017KT CAVOK PROB30 TEMPO 2612/2618 06018G30KT

Observaciones y pronósticos meteorológicos de más de 4000 aeropuertos (mensajes METAR y TAF).

Los puntos amarillos y rojos representan las estaciones disponibles.

Ponga el ratón en el punto deseado para ver el nombre de la estación.

Haga clic para ver las observaciones y los pronósticos meteorológicos.

Para cambiar el mapa : haga clic en los botones verdes con una cruz de color negro para hacer un zoom, en el botón verde con un guión para alejar o en las flechas verdes para mapas adyacentes.


METAR-TAF: